sensor_id;sensor_type;location;lat;lon;timestamp;P1;durP1;ratioP1;P2;durP2;ratioP2
35326;SDS011;21436;52.348;20.928;2024-02-23T00:01:13;15.32;;;8.55;;
35326;SDS011;21436;52.348;20.928;2024-02-23T00:03:42;14.48;;;8.52;;
35326;SDS011;21436;52.348;20.928;2024-02-23T00:06:12;13.38;;;8.60;;
35326;SDS011;21436;52.348;20.928;2024-02-23T00:08:40;16.02;;;9.20;;
35326;SDS011;21436;52.348;20.928;2024-02-23T00:11:09;12.18;;;8.20;;
35326;SDS011;21436;52.348;20.928;2024-02-23T00:13:37;17.00;;;9.25;;
35326;SDS011;21436;52.348;20.928;2024-02-23T00:16:06;14.68;;;8.85;;
35326;SDS011;21436;52.348;20.928;2024-02-23T00:18:34;14.68;;;8.63;;
35326;SDS011;21436;52.348;20.928;2024-02-23T00:21:03;16.08;;;8.90;;
35326;SDS011;21436;52.348;20.928;2024-02-23T00:23:32;14.55;;;9.23;;
35326;SDS011;21436;52.348;20.928;2024-02-23T00:26:02;14.95;;;8.88;;
35326;SDS011;21436;52.348;20.928;2024-02-23T00:28:34;14.15;;;9.38;;
35326;SDS011;21436;52.348;20.928;2024-02-23T00:31:08;12.73;;;9.20;;
35326;SDS011;21436;52.348;20.928;2024-02-23T00:33:36;14.63;;;9.55;;
35326;SDS011;21436;52.348;20.928;2024-02-23T00:36:05;14.27;;;9.18;;
35326;SDS011;21436;52.348;20.928;2024-02-23T00:38:38;14.70;;;9.33;;
35326;SDS011;21436;52.348;20.928;2024-02-23T00:41:06;13.45;;;8.50;;
35326;SDS011;21436;52.348;20.928;2024-02-23T00:43:38;16.13;;;8.95;;
35326;SDS011;21436;52.348;20.928;2024-02-23T00:46:11;12.60;;;8.50;;
35326;SDS011;21436;52.348;20.928;2024-02-23T00:48:43;13.90;;;9.48;;
35326;SDS011;21436;52.348;20.928;2024-02-23T00:51:14;13.98;;;8.35;;
35326;SDS011;21436;52.348;20.928;2024-02-23T00:53:42;13.85;;;8.40;;
35326;SDS011;21436;52.348;20.928;2024-02-23T00:56:12;14.25;;;9.10;;
35326;SDS011;21436;52.348;20.928;2024-02-23T00:58:41;13.23;;;8.45;;
35326;SDS011;21436;52.348;20.928;2024-02-23T01:01:09;13.80;;;9.02;;
35326;SDS011;21436;52.348;20.928;2024-02-23T01:03:38;11.63;;;8.02;;
35326;SDS011;21436;52.348;20.928;2024-02-23T01:06:08;10.98;;;8.23;;
35326;SDS011;21436;52.348;20.928;2024-02-23T01:08:36;14.10;;;8.88;;
35326;SDS011;21436;52.348;20.928;2024-02-23T01:11:05;11.93;;;8.07;;
35326;SDS011;21436;52.348;20.928;2024-02-23T01:13:34;12.25;;;8.13;;
35326;SDS011;21436;52.348;20.928;2024-02-23T01:16:03;12.80;;;8.32;;
35326;SDS011;21436;52.348;20.928;2024-02-23T01:18:31;13.40;;;8.45;;
35326;SDS011;21436;52.348;20.928;2024-02-23T01:20:59;12.48;;;7.93;;
35326;SDS011;21436;52.348;20.928;2024-02-23T01:23:28;12.07;;;7.28;;
35326;SDS011;21436;52.348;20.928;2024-02-23T01:25:57;16.77;;;8.63;;
35326;SDS011;21436;52.348;20.928;2024-02-23T01:28:27;11.20;;;7.93;;
35326;SDS011;21436;52.348;20.928;2024-02-23T01:30:55;10.02;;;7.80;;
35326;SDS011;21436;52.348;20.928;2024-02-23T01:33:24;14.07;;;7.53;;
35326;SDS011;21436;52.348;20.928;2024-02-23T01:35:53;12.35;;;8.05;;
35326;SDS011;21436;52.348;20.928;2024-02-23T01:38:21;11.75;;;7.53;;
35326;SDS011;21436;52.348;20.928;2024-02-23T01:40:50;12.07;;;8.15;;
35326;SDS011;21436;52.348;20.928;2024-02-23T01:43:18;10.65;;;7.75;;
35326;SDS011;21436;52.348;20.928;2024-02-23T01:45:47;13.40;;;7.78;;
35326;SDS011;21436;52.348;20.928;2024-02-23T01:48:15;12.13;;;7.18;;
35326;SDS011;21436;52.348;20.928;2024-02-23T01:50:44;10.57;;;7.43;;
35326;SDS011;21436;52.348;20.928;2024-02-23T01:53:13;13.73;;;6.72;;
35326;SDS011;21436;52.348;20.928;2024-02-23T01:55:42;15.70;;;7.38;;
35326;SDS011;21436;52.348;20.928;2024-02-23T01:58:10;11.77;;;7.70;;
35326;SDS011;21436;52.348;20.928;2024-02-23T02:00:42;11.48;;;7.68;;
35326;SDS011;21436;52.348;20.928;2024-02-23T02:03:11;12.63;;;8.60;;
35326;SDS011;21436;52.348;20.928;2024-02-23T02:05:40;10.55;;;7.40;;
35326;SDS011;21436;52.348;20.928;2024-02-23T02:08:09;15.05;;;7.57;;
35326;SDS011;21436;52.348;20.928;2024-02-23T02:10:39;12.40;;;7.45;;
35326;SDS011;21436;52.348;20.928;2024-02-23T02:13:07;9.40;;;6.95;;
35326;SDS011;21436;52.348;20.928;2024-02-23T02:15:36;12.35;;;7.53;;
35326;SDS011;21436;52.348;20.928;2024-02-23T02:18:05;9.48;;;6.93;;
35326;SDS011;21436;52.348;20.928;2024-02-23T02:20:34;12.20;;;6.88;;
35326;SDS011;21436;52.348;20.928;2024-02-23T02:23:04;12.30;;;7.80;;
35326;SDS011;21436;52.348;20.928;2024-02-23T02:25:35;10.30;;;7.07;;
35326;SDS011;21436;52.348;20.928;2024-02-23T02:28:05;10.30;;;7.03;;
35326;SDS011;21436;52.348;20.928;2024-02-23T02:30:36;11.05;;;7.03;;
35326;SDS011;21436;52.348;20.928;2024-02-23T02:33:04;12.25;;;7.18;;
35326;SDS011;21436;52.348;20.928;2024-02-23T02:35:33;11.32;;;7.18;;
35326;SDS011;21436;52.348;20.928;2024-02-23T02:38:01;12.30;;;7.35;;
35326;SDS011;21436;52.348;20.928;2024-02-23T02:40:30;9.68;;;6.75;;
35326;SDS011;21436;52.348;20.928;2024-02-23T02:42:59;8.93;;;6.30;;
35326;SDS011;21436;52.348;20.928;2024-02-23T02:45:27;12.70;;;6.97;;
35326;SDS011;21436;52.348;20.928;2024-02-23T02:47:55;9.90;;;7.38;;
35326;SDS011;21436;52.348;20.928;2024-02-23T02:50:24;9.93;;;6.88;;
35326;SDS011;21436;52.348;20.928;2024-02-23T02:52:53;10.73;;;6.93;;
35326;SDS011;21436;52.348;20.928;2024-02-23T02:55:22;14.35;;;7.03;;
35326;SDS011;21436;52.348;20.928;2024-02-23T02:57:50;10.70;;;7.03;;
35326;SDS011;21436;52.348;20.928;2024-02-23T03:00:19;10.15;;;6.85;;
35326;SDS011;21436;52.348;20.928;2024-02-23T03:02:47;9.75;;;6.28;;
35326;SDS011;21436;52.348;20.928;2024-02-23T03:05:16;10.52;;;6.65;;
35326;SDS011;21436;52.348;20.928;2024-02-23T03:07:44;9.85;;;6.40;;
35326;SDS011;21436;52.348;20.928;2024-02-23T03:10:13;10.30;;;6.80;;
35326;SDS011;21436;52.348;20.928;2024-02-23T03:12:43;13.18;;;6.63;;
35326;SDS011;21436;52.348;20.928;2024-02-23T03:15:11;9.00;;;6.68;;
35326;SDS011;21436;52.348;20.928;2024-02-23T03:17:40;10.32;;;6.07;;
35326;SDS011;21436;52.348;20.928;2024-02-23T03:20:10;10.68;;;6.65;;
35326;SDS011;21436;52.348;20.928;2024-02-23T03:22:39;9.68;;;5.82;;
35326;SDS011;21436;52.348;20.928;2024-02-23T03:25:08;11.73;;;7.00;;
35326;SDS011;21436;52.348;20.928;2024-02-23T03:27:37;9.15;;;6.10;;
35326;SDS011;21436;52.348;20.928;2024-02-23T03:30:06;8.52;;;6.18;;
35326;SDS011;21436;52.348;20.928;2024-02-23T03:32:38;12.18;;;6.80;;
35326;SDS011;21436;52.348;20.928;2024-02-23T03:35:08;9.40;;;6.53;;
35326;SDS011;21436;52.348;20.928;2024-02-23T03:37:37;10.70;;;7.15;;
35326;SDS011;21436;52.348;20.928;2024-02-23T03:40:06;10.32;;;7.13;;
35326;SDS011;21436;52.348;20.928;2024-02-23T03:42:34;11.93;;;7.00;;
35326;SDS011;21436;52.348;20.928;2024-02-23T03:45:04;10.35;;;7.22;;
35326;SDS011;21436;52.348;20.928;2024-02-23T03:47:33;13.18;;;7.65;;
35326;SDS011;21436;52.348;20.928;2024-02-23T03:50:03;11.73;;;7.25;;
35326;SDS011;21436;52.348;20.928;2024-02-23T03:52:32;10.98;;;7.47;;
35326;SDS011;21436;52.348;20.928;2024-02-23T03:55:00;12.23;;;7.72;;
35326;SDS011;21436;52.348;20.928;2024-02-23T03:57:29;10.05;;;6.63;;
35326;SDS011;21436;52.348;20.928;2024-02-23T03:59:57;11.38;;;7.35;;
35326;SDS011;21436;52.348;20.928;2024-02-23T04:02:26;11.20;;;7.18;;
35326;SDS011;21436;52.348;20.928;2024-02-23T04:04:54;9.43;;;6.75;;
35326;SDS011;21436;52.348;20.928;2024-02-23T04:07:23;11.00;;;7.35;;
35326;SDS011;21436;52.348;20.928;2024-02-23T04:09:52;10.88;;;7.47;;
35326;SDS011;21436;52.348;20.928;2024-02-23T04:12:23;9.98;;;7.32;;
35326;SDS011;21436;52.348;20.928;2024-02-23T04:14:52;14.00;;;7.57;;
35326;SDS011;21436;52.348;20.928;2024-02-23T04:17:20;12.32;;;7.18;;
35326;SDS011;21436;52.348;20.928;2024-02-23T04:19:55;10.65;;;7.78;;
35326;SDS011;21436;52.348;20.928;2024-02-23T04:22:48;9.45;;;6.80;;
35326;SDS011;21436;52.348;20.928;2024-02-23T04:25:17;10.27;;;7.45;;
35326;SDS011;21436;52.348;20.928;2024-02-23T04:27:57;10.98;;;7.50;;
35326;SDS011;21436;52.348;20.928;2024-02-23T04:30:27;9.70;;;7.10;;
35326;SDS011;21436;52.348;20.928;2024-02-23T04:32:55;10.02;;;7.28;;
35326;SDS011;21436;52.348;20.928;2024-02-23T04:35:24;10.63;;;6.55;;
35326;SDS011;21436;52.348;20.928;2024-02-23T04:37:53;11.40;;;7.70;;
35326;SDS011;21436;52.348;20.928;2024-02-23T04:40:25;13.52;;;7.15;;
35326;SDS011;21436;52.348;20.928;2024-02-23T04:42:55;12.65;;;7.32;;
35326;SDS011;21436;52.348;20.928;2024-02-23T04:45:23;10.00;;;7.28;;
35326;SDS011;21436;52.348;20.928;2024-02-23T04:47:51;13.93;;;7.53;;
35326;SDS011;21436;52.348;20.928;2024-02-23T04:50:20;11.52;;;7.45;;
35326;SDS011;21436;52.348;20.928;2024-02-23T04:52:48;12.93;;;7.85;;
35326;SDS011;21436;52.348;20.928;2024-02-23T04:55:18;14.05;;;7.88;;
35326;SDS011;21436;52.348;20.928;2024-02-23T04:57:46;12.50;;;7.50;;
35326;SDS011;21436;52.348;20.928;2024-02-23T05:00:15;11.52;;;7.70;;
35326;SDS011;21436;52.348;20.928;2024-02-23T05:02:43;12.00;;;7.20;;
35326;SDS011;21436;52.348;20.928;2024-02-23T05:05:12;12.98;;;7.95;;
35326;SDS011;21436;52.348;20.928;2024-02-23T05:07:41;11.80;;;7.00;;
35326;SDS011;21436;52.348;20.928;2024-02-23T05:10:10;11.60;;;7.40;;
35326;SDS011;21436;52.348;20.928;2024-02-23T05:12:39;12.75;;;7.75;;
35326;SDS011;21436;52.348;20.928;2024-02-23T05:15:07;11.32;;;7.47;;
35326;SDS011;21436;52.348;20.928;2024-02-23T05:17:36;13.23;;;7.20;;
35326;SDS011;21436;52.348;20.928;2024-02-23T05:20:05;11.90;;;7.10;;
35326;SDS011;21436;52.348;20.928;2024-02-23T05:22:36;10.65;;;6.38;;
35326;SDS011;21436;52.348;20.928;2024-02-23T05:25:06;14.65;;;7.38;;
35326;SDS011;21436;52.348;20.928;2024-02-23T05:27:35;11.52;;;6.88;;
35326;SDS011;21436;52.348;20.928;2024-02-23T05:30:04;12.18;;;6.80;;
35326;SDS011;21436;52.348;20.928;2024-02-23T05:32:34;10.35;;;6.75;;
35326;SDS011;21436;52.348;20.928;2024-02-23T05:35:03;11.27;;;7.05;;
35326;SDS011;21436;52.348;20.928;2024-02-23T05:37:32;11.32;;;7.05;;
35326;SDS011;21436;52.348;20.928;2024-02-23T05:40:00;13.95;;;8.32;;
35326;SDS011;21436;52.348;20.928;2024-02-23T05:42:32;10.70;;;7.15;;
35326;SDS011;21436;52.348;20.928;2024-02-23T05:45:04;11.73;;;7.07;;
35326;SDS011;21436;52.348;20.928;2024-02-23T05:47:39;11.77;;;7.72;;
35326;SDS011;21436;52.348;20.928;2024-02-23T05:50:11;11.95;;;7.75;;
35326;SDS011;21436;52.348;20.928;2024-02-23T05:52:39;12.30;;;7.78;;
35326;SDS011;21436;52.348;20.928;2024-02-23T05:55:07;12.30;;;7.57;;
35326;SDS011;21436;52.348;20.928;2024-02-23T05:57:35;11.15;;;6.85;;
35326;SDS011;21436;52.348;20.928;2024-02-23T06:00:04;12.25;;;7.72;;
35326;SDS011;21436;52.348;20.928;2024-02-23T06:02:37;11.52;;;7.75;;
35326;SDS011;21436;52.348;20.928;2024-02-23T06:05:06;14.15;;;7.05;;
35326;SDS011;21436;52.348;20.928;2024-02-23T06:07:35;12.95;;;7.65;;
35326;SDS011;21436;52.348;20.928;2024-02-23T06:10:04;14.07;;;8.20;;
35326;SDS011;21436;52.348;20.928;2024-02-23T06:12:32;13.05;;;7.80;;
35326;SDS011;21436;52.348;20.928;2024-02-23T06:15:02;12.05;;;7.40;;
35326;SDS011;21436;52.348;20.928;2024-02-23T06:17:33;13.73;;;7.60;;
35326;SDS011;21436;52.348;20.928;2024-02-23T06:20:04;10.25;;;7.78;;
35326;SDS011;21436;52.348;20.928;2024-02-23T06:22:36;13.68;;;7.97;;
35326;SDS011;21436;52.348;20.928;2024-02-23T06:25:08;18.83;;;7.97;;
35326;SDS011;21436;52.348;20.928;2024-02-23T06:27:45;14.32;;;7.43;;
35326;SDS011;21436;52.348;20.928;2024-02-23T06:30:19;10.18;;;6.22;;
35326;SDS011;21436;52.348;20.928;2024-02-23T06:32:48;12.50;;;6.95;;
35326;SDS011;21436;52.348;20.928;2024-02-23T06:35:16;15.73;;;7.50;;
35326;SDS011;21436;52.348;20.928;2024-02-23T06:37:53;13.35;;;7.47;;
35326;SDS011;21436;52.348;20.928;2024-02-23T06:40:27;14.05;;;7.43;;
35326;SDS011;21436;52.348;20.928;2024-02-23T06:43:12;12.55;;;7.30;;
35326;SDS011;21436;52.348;20.928;2024-02-23T06:45:40;12.60;;;7.07;;
35326;SDS011;21436;52.348;20.928;2024-02-23T06:48:08;12.55;;;7.47;;
35326;SDS011;21436;52.348;20.928;2024-02-23T06:50:39;14.85;;;8.00;;
35326;SDS011;21436;52.348;20.928;2024-02-23T06:53:19;13.68;;;7.18;;
35326;SDS011;21436;52.348;20.928;2024-02-23T06:55:48;10.60;;;6.93;;
35326;SDS011;21436;52.348;20.928;2024-02-23T06:58:16;13.18;;;7.28;;
35326;SDS011;21436;52.348;20.928;2024-02-23T07:01:13;14.25;;;7.05;;
35326;SDS011;21436;52.348;20.928;2024-02-23T07:03:44;11.80;;;6.65;;
35326;SDS011;21436;52.348;20.928;2024-02-23T07:06:12;11.10;;;7.75;;
35326;SDS011;21436;52.348;20.928;2024-02-23T07:08:44;8.68;;;6.15;;
35326;SDS011;21436;52.348;20.928;2024-02-23T07:11:13;12.38;;;7.90;;
35326;SDS011;21436;52.348;20.928;2024-02-23T07:13:42;11.77;;;6.75;;
35326;SDS011;21436;52.348;20.928;2024-02-23T07:16:11;11.70;;;6.68;;
35326;SDS011;21436;52.348;20.928;2024-02-23T07:18:40;12.88;;;7.70;;
35326;SDS011;21436;52.348;20.928;2024-02-23T07:21:10;10.48;;;6.35;;
35326;SDS011;21436;52.348;20.928;2024-02-23T07:23:44;11.38;;;7.10;;
35326;SDS011;21436;52.348;20.928;2024-02-23T07:26:13;12.80;;;7.47;;
35326;SDS011;21436;52.348;20.928;2024-02-23T07:28:42;10.57;;;6.50;;
35326;SDS011;21436;52.348;20.928;2024-02-23T07:31:10;10.45;;;7.13;;
35326;SDS011;21436;52.348;20.928;2024-02-23T07:33:39;14.65;;;7.60;;
35326;SDS011;21436;52.348;20.928;2024-02-23T07:36:09;13.68;;;7.00;;
35326;SDS011;21436;52.348;20.928;2024-02-23T07:38:42;10.48;;;6.53;;
35326;SDS011;21436;52.348;20.928;2024-02-23T07:41:14;13.82;;;7.78;;
35326;SDS011;21436;52.348;20.928;2024-02-23T07:43:46;9.57;;;6.00;;
35326;SDS011;21436;52.348;20.928;2024-02-23T07:46:19;11.25;;;6.80;;
35326;SDS011;21436;52.348;20.928;2024-02-23T07:48:48;12.13;;;7.45;;
35326;SDS011;21436;52.348;20.928;2024-02-23T07:51:16;14.30;;;7.90;;
35326;SDS011;21436;52.348;20.928;2024-02-23T07:53:46;13.73;;;7.60;;
35326;SDS011;21436;52.348;20.928;2024-02-23T07:56:14;12.35;;;7.68;;
35326;SDS011;21436;52.348;20.928;2024-02-23T07:58:44;13.05;;;7.65;;
35326;SDS011;21436;52.348;20.928;2024-02-23T08:01:13;13.77;;;6.93;;
35326;SDS011;21436;52.348;20.928;2024-02-23T08:03:42;13.15;;;7.65;;
35326;SDS011;21436;52.348;20.928;2024-02-23T08:06:11;15.45;;;8.20;;
35326;SDS011;21436;52.348;20.928;2024-02-23T08:08:41;13.77;;;7.38;;
35326;SDS011;21436;52.348;20.928;2024-02-23T08:11:09;12.02;;;7.65;;
35326;SDS011;21436;52.348;20.928;2024-02-23T08:13:38;16.77;;;7.78;;
35326;SDS011;21436;52.348;20.928;2024-02-23T08:16:06;15.88;;;7.70;;
35326;SDS011;21436;52.348;20.928;2024-02-23T08:18:35;15.00;;;7.32;;
35326;SDS011;21436;52.348;20.928;2024-02-23T08:21:04;14.80;;;8.10;;
35326;SDS011;21436;52.348;20.928;2024-02-23T08:23:33;15.48;;;9.13;;
35326;SDS011;21436;52.348;20.928;2024-02-23T08:26:03;15.25;;;8.27;;
35326;SDS011;21436;52.348;20.928;2024-02-23T08:28:32;15.38;;;8.48;;
35326;SDS011;21436;52.348;20.928;2024-02-23T08:31:01;13.93;;;7.72;;
35326;SDS011;21436;52.348;20.928;2024-02-23T08:33:30;14.73;;;7.75;;
35326;SDS011;21436;52.348;20.928;2024-02-23T08:35:58;14.27;;;9.15;;
35326;SDS011;21436;52.348;20.928;2024-02-23T08:38:28;12.95;;;7.90;;
35326;SDS011;21436;52.348;20.928;2024-02-23T08:40:56;15.32;;;8.18;;
35326;SDS011;21436;52.348;20.928;2024-02-23T08:43:24;14.43;;;8.23;;
35326;SDS011;21436;52.348;20.928;2024-02-23T08:45:53;13.60;;;8.32;;
35326;SDS011;21436;52.348;20.928;2024-02-23T08:48:21;12.13;;;7.90;;
35326;SDS011;21436;52.348;20.928;2024-02-23T08:50:50;15.27;;;8.27;;
35326;SDS011;21436;52.348;20.928;2024-02-23T08:53:18;14.48;;;8.93;;
35326;SDS011;21436;52.348;20.928;2024-02-23T08:55:46;13.68;;;8.75;;
35326;SDS011;21436;52.348;20.928;2024-02-23T08:58:15;16.52;;;8.65;;
35326;SDS011;21436;52.348;20.928;2024-02-23T09:00:44;14.88;;;8.57;;
35326;SDS011;21436;52.348;20.928;2024-02-23T09:03:13;13.63;;;8.18;;
35326;SDS011;21436;52.348;20.928;2024-02-23T09:05:42;16.38;;;8.82;;
35326;SDS011;21436;52.348;20.928;2024-02-23T09:08:11;12.60;;;8.40;;
35326;SDS011;21436;52.348;20.928;2024-02-23T09:10:39;12.10;;;8.27;;
35326;SDS011;21436;52.348;20.928;2024-02-23T09:13:10;11.88;;;8.10;;
35326;SDS011;21436;52.348;20.928;2024-02-23T09:15:40;14.32;;;8.68;;
35326;SDS011;21436;52.348;20.928;2024-02-23T09:18:10;15.95;;;8.23;;
35326;SDS011;21436;52.348;20.928;2024-02-23T09:20:39;13.77;;;9.32;;
35326;SDS011;21436;52.348;20.928;2024-02-23T09:23:08;13.20;;;8.18;;
35326;SDS011;21436;52.348;20.928;2024-02-23T09:25:37;12.65;;;8.40;;
35326;SDS011;21436;52.348;20.928;2024-02-23T09:28:10;12.60;;;8.07;;
35326;SDS011;21436;52.348;20.928;2024-02-23T09:30:39;12.23;;;8.10;;
35326;SDS011;21436;52.348;20.928;2024-02-23T09:33:07;12.98;;;7.90;;
35326;SDS011;21436;52.348;20.928;2024-02-23T09:35:36;14.30;;;8.70;;
35326;SDS011;21436;52.348;20.928;2024-02-23T09:38:05;11.85;;;7.60;;
35326;SDS011;21436;52.348;20.928;2024-02-23T09:40:35;10.95;;;7.97;;
35326;SDS011;21436;52.348;20.928;2024-02-23T09:43:04;13.60;;;8.65;;
35326;SDS011;21436;52.348;20.928;2024-02-23T09:45:36;17.52;;;9.23;;
35326;SDS011;21436;52.348;20.928;2024-02-23T09:48:06;14.27;;;8.93;;
35326;SDS011;21436;52.348;20.928;2024-02-23T09:50:35;13.00;;;8.40;;
35326;SDS011;21436;52.348;20.928;2024-02-23T09:53:06;13.93;;;8.00;;
35326;SDS011;21436;52.348;20.928;2024-02-23T09:55:38;15.18;;;8.15;;
35326;SDS011;21436;52.348;20.928;2024-02-23T09:58:07;15.27;;;8.60;;
35326;SDS011;21436;52.348;20.928;2024-02-23T10:00:36;15.23;;;8.93;;
35326;SDS011;21436;52.348;20.928;2024-02-23T10:03:07;12.95;;;8.25;;
35326;SDS011;21436;52.348;20.928;2024-02-23T10:05:35;12.75;;;7.93;;
35326;SDS011;21436;52.348;20.928;2024-02-23T10:10:37;13.43;;;8.27;;
35326;SDS011;21436;52.348;20.928;2024-02-23T10:13:06;16.83;;;8.63;;
35326;SDS011;21436;52.348;20.928;2024-02-23T10:15:36;12.57;;;8.63;;
35326;SDS011;21436;52.348;20.928;2024-02-23T10:18:04;12.98;;;9.00;;
35326;SDS011;21436;52.348;20.928;2024-02-23T10:20:33;13.30;;;8.68;;
35326;SDS011;21436;52.348;20.928;2024-02-23T10:23:03;12.23;;;8.45;;
35326;SDS011;21436;52.348;20.928;2024-02-23T10:25:35;9.73;;;7.43;;
35326;SDS011;21436;52.348;20.928;2024-02-23T10:28:05;12.85;;;9.20;;
35326;SDS011;21436;52.348;20.928;2024-02-23T10:30:34;13.80;;;8.90;;
35326;SDS011;21436;52.348;20.928;2024-02-23T10:33:06;11.45;;;8.60;;
35326;SDS011;21436;52.348;20.928;2024-02-23T10:35:34;14.93;;;8.98;;
35326;SDS011;21436;52.348;20.928;2024-02-23T10:38:09;13.40;;;8.73;;
35326;SDS011;21436;52.348;20.928;2024-02-23T10:40:38;18.42;;;9.32;;
35326;SDS011;21436;52.348;20.928;2024-02-23T10:43:12;13.73;;;8.45;;
35326;SDS011;21436;52.348;20.928;2024-02-23T10:45:40;15.30;;;8.10;;
35326;SDS011;21436;52.348;20.928;2024-02-23T10:48:10;14.50;;;8.80;;
35326;SDS011;21436;52.348;20.928;2024-02-23T10:50:39;12.65;;;8.95;;
35326;SDS011;21436;52.348;20.928;2024-02-23T10:53:08;16.00;;;9.45;;
35326;SDS011;21436;52.348;20.928;2024-02-23T10:55:37;12.75;;;8.70;;
35326;SDS011;21436;52.348;20.928;2024-02-23T10:58:09;14.77;;;8.67;;
35326;SDS011;21436;52.348;20.928;2024-02-23T11:00:39;18.08;;;9.55;;
35326;SDS011;21436;52.348;20.928;2024-02-23T11:03:08;18.63;;;9.27;;
35326;SDS011;21436;52.348;20.928;2024-02-23T11:05:37;14.20;;;9.25;;
35326;SDS011;21436;52.348;20.928;2024-02-23T11:08:07;14.95;;;9.27;;
35326;SDS011;21436;52.348;20.928;2024-02-23T11:10:42;16.23;;;9.10;;
35326;SDS011;21436;52.348;20.928;2024-02-23T11:13:11;14.77;;;9.25;;
35326;SDS011;21436;52.348;20.928;2024-02-23T11:15:41;15.68;;;10.00;;
35326;SDS011;21436;52.348;20.928;2024-02-23T11:21:00;17.63;;;10.27;;
35326;SDS011;21436;52.348;20.928;2024-02-23T11:23:43;13.45;;;9.15;;
35326;SDS011;21436;52.348;20.928;2024-02-23T11:26:14;15.23;;;9.70;;
35326;SDS011;21436;52.348;20.928;2024-02-23T11:28:50;14.18;;;9.85;;
35326;SDS011;21436;52.348;20.928;2024-02-23T11:31:25;14.15;;;10.13;;
35326;SDS011;21436;52.348;20.928;2024-02-23T11:33:58;18.27;;;10.48;;
35326;SDS011;21436;52.348;20.928;2024-02-23T11:36:27;18.73;;;10.32;;
35326;SDS011;21436;52.348;20.928;2024-02-23T11:38:58;15.77;;;10.95;;
35326;SDS011;21436;52.348;20.928;2024-02-23T11:41:28;15.45;;;10.60;;
35326;SDS011;21436;52.348;20.928;2024-02-23T11:43:57;18.67;;;10.73;;
35326;SDS011;21436;52.348;20.928;2024-02-23T11:46:25;18.13;;;11.88;;
35326;SDS011;21436;52.348;20.928;2024-02-23T11:48:55;19.40;;;12.18;;
35326;SDS011;21436;52.348;20.928;2024-02-23T11:51:24;17.95;;;11.50;;
35326;SDS011;21436;52.348;20.928;2024-02-23T11:53:55;16.75;;;11.88;;
35326;SDS011;21436;52.348;20.928;2024-02-23T11:56:29;19.98;;;12.05;;
35326;SDS011;21436;52.348;20.928;2024-02-23T11:58:58;17.05;;;11.57;;
35326;SDS011;21436;52.348;20.928;2024-02-23T12:01:28;18.48;;;12.07;;
35326;SDS011;21436;52.348;20.928;2024-02-23T12:03:58;18.33;;;12.90;;
35326;SDS011;21436;52.348;20.928;2024-02-23T12:06:27;19.85;;;12.80;;
35326;SDS011;21436;52.348;20.928;2024-02-23T12:09:00;19.90;;;14.13;;
35326;SDS011;21436;52.348;20.928;2024-02-23T12:11:29;17.83;;;11.80;;
35326;SDS011;21436;52.348;20.928;2024-02-23T12:14:00;20.13;;;12.07;;
35326;SDS011;21436;52.348;20.928;2024-02-23T12:16:30;17.60;;;11.70;;
35326;SDS011;21436;52.348;20.928;2024-02-23T12:19:02;19.35;;;13.18;;
35326;SDS011;21436;52.348;20.928;2024-02-23T12:21:33;18.13;;;11.90;;
35326;SDS011;21436;52.348;20.928;2024-02-23T12:24:04;16.75;;;12.23;;
35326;SDS011;21436;52.348;20.928;2024-02-23T12:26:34;20.42;;;12.35;;
35326;SDS011;21436;52.348;20.928;2024-02-23T12:29:03;19.05;;;11.85;;
35326;SDS011;21436;52.348;20.928;2024-02-23T12:31:31;17.63;;;11.68;;
35326;SDS011;21436;52.348;20.928;2024-02-23T12:34:01;18.38;;;11.57;;
35326;SDS011;21436;52.348;20.928;2024-02-23T12:36:29;20.27;;;11.07;;
35326;SDS011;21436;52.348;20.928;2024-02-23T12:39:03;18.67;;;11.77;;
35326;SDS011;21436;52.348;20.928;2024-02-23T12:41:31;15.25;;;11.05;;
35326;SDS011;21436;52.348;20.928;2024-02-23T12:44:01;17.15;;;11.05;;
35326;SDS011;21436;52.348;20.928;2024-02-23T12:46:29;17.90;;;11.18;;
35326;SDS011;21436;52.348;20.928;2024-02-23T12:48:58;19.70;;;11.43;;
35326;SDS011;21436;52.348;20.928;2024-02-23T12:51:26;17.35;;;11.55;;
35326;SDS011;21436;52.348;20.928;2024-02-23T12:53:55;19.48;;;11.98;;
35326;SDS011;21436;52.348;20.928;2024-02-23T12:56:23;17.52;;;11.77;;
35326;SDS011;21436;52.348;20.928;2024-02-23T12:58:53;17.95;;;12.55;;
35326;SDS011;21436;52.348;20.928;2024-02-23T13:01:22;17.25;;;12.02;;
35326;SDS011;21436;52.348;20.928;2024-02-23T13:03:51;24.88;;;13.55;;
35326;SDS011;21436;52.348;20.928;2024-02-23T13:06:21;18.23;;;12.13;;
35326;SDS011;21436;52.348;20.928;2024-02-23T13:08:49;18.98;;;12.00;;
35326;SDS011;21436;52.348;20.928;2024-02-23T13:11:18;16.48;;;12.25;;
35326;SDS011;21436;52.348;20.928;2024-02-23T13:13:47;20.35;;;12.65;;
35326;SDS011;21436;52.348;20.928;2024-02-23T13:16:16;19.73;;;12.63;;
35326;SDS011;21436;52.348;20.928;2024-02-23T13:18:44;20.40;;;13.02;;
35326;SDS011;21436;52.348;20.928;2024-02-23T13:21:14;17.50;;;12.15;;
35326;SDS011;21436;52.348;20.928;2024-02-23T13:23:43;19.92;;;12.73;;
35326;SDS011;21436;52.348;20.928;2024-02-23T13:26:11;20.30;;;13.27;;
35326;SDS011;21436;52.348;20.928;2024-02-23T13:28:43;23.23;;;13.45;;
35326;SDS011;21436;52.348;20.928;2024-02-23T13:31:12;18.23;;;12.52;;
35326;SDS011;21436;52.348;20.928;2024-02-23T13:33:41;20.73;;;12.70;;
35326;SDS011;21436;52.348;20.928;2024-02-23T13:36:10;19.60;;;11.82;;
35326;SDS011;21436;52.348;20.928;2024-02-23T13:38:39;18.48;;;12.65;;
35326;SDS011;21436;52.348;20.928;2024-02-23T13:41:10;19.55;;;12.02;;
35326;SDS011;21436;52.348;20.928;2024-02-23T13:43:39;21.25;;;13.25;;
35326;SDS011;21436;52.348;20.928;2024-02-23T13:46:08;20.75;;;13.65;;
35326;SDS011;21436;52.348;20.928;2024-02-23T13:48:37;24.23;;;13.70;;
35326;SDS011;21436;52.348;20.928;2024-02-23T13:51:06;24.20;;;13.10;;
35326;SDS011;21436;52.348;20.928;2024-02-23T13:53:34;19.58;;;12.90;;
35326;SDS011;21436;52.348;20.928;2024-02-23T13:56:05;23.52;;;13.35;;
35326;SDS011;21436;52.348;20.928;2024-02-23T13:58:33;22.33;;;14.38;;
35326;SDS011;21436;52.348;20.928;2024-02-23T14:01:04;25.73;;;15.30;;
35326;SDS011;21436;52.348;20.928;2024-02-23T14:03:32;22.85;;;14.75;;
35326;SDS011;21436;52.348;20.928;2024-02-23T14:06:00;25.45;;;15.35;;
35326;SDS011;21436;52.348;20.928;2024-02-23T14:08:30;28.20;;;15.35;;
35326;SDS011;21436;52.348;20.928;2024-02-23T14:11:02;26.30;;;15.85;;
35326;SDS011;21436;52.348;20.928;2024-02-23T14:13:33;25.95;;;15.05;;
35326;SDS011;21436;52.348;20.928;2024-02-23T14:16:01;26.42;;;16.20;;
35326;SDS011;21436;52.348;20.928;2024-02-23T14:18:32;25.98;;;15.25;;
35326;SDS011;21436;52.348;20.928;2024-02-23T14:21:04;25.90;;;15.43;;
35326;SDS011;21436;52.348;20.928;2024-02-23T14:23:33;23.40;;;13.90;;
35326;SDS011;21436;52.348;20.928;2024-02-23T14:26:03;29.02;;;15.85;;
35326;SDS011;21436;52.348;20.928;2024-02-23T14:28:31;21.90;;;14.38;;
35326;SDS011;21436;52.348;20.928;2024-02-23T14:31:00;25.98;;;14.50;;
35326;SDS011;21436;52.348;20.928;2024-02-23T14:33:29;27.80;;;14.70;;
35326;SDS011;21436;52.348;20.928;2024-02-23T14:35:57;21.80;;;14.60;;
35326;SDS011;21436;52.348;20.928;2024-02-23T14:38:26;23.45;;;14.60;;